sensor_id;sensor_type;location;lat;lon;timestamp;P1;durP1;ratioP1;P2;durP2;ratioP2
6195;SDS011;3131;42.630;23.382;2023-04-15T00:00:31;6.87;;;3.27;;
6195;SDS011;3131;42.630;23.382;2023-04-15T00:02:59;4.00;;;2.97;;
6195;SDS011;3131;42.630;23.382;2023-04-15T00:05:28;1.73;;;1.63;;
6195;SDS011;3131;42.630;23.382;2023-04-15T00:07:56;3.77;;;2.10;;
6195;SDS011;3131;42.630;23.382;2023-04-15T00:10:24;3.23;;;1.93;;
6195;SDS011;3131;42.630;23.382;2023-04-15T00:12:51;9.07;;;2.03;;
6195;SDS011;3131;42.630;23.382;2023-04-15T00:15:19;2.17;;;2.00;;
6195;SDS011;3131;42.630;23.382;2023-04-15T00:17:48;3.20;;;2.23;;
6195;SDS011;3131;42.630;23.382;2023-04-15T00:20:17;6.37;;;2.67;;
6195;SDS011;3131;42.630;23.382;2023-04-15T00:22:45;4.37;;;2.93;;
6195;SDS011;3131;42.630;23.382;2023-04-15T00:25:13;5.40;;;3.27;;
6195;SDS011;3131;42.630;23.382;2023-04-15T00:27:41;9.40;;;3.67;;
6195;SDS011;3131;42.630;23.382;2023-04-15T00:30:09;8.67;;;4.27;;
6195;SDS011;3131;42.630;23.382;2023-04-15T00:32:37;8.67;;;3.93;;
6195;SDS011;3131;42.630;23.382;2023-04-15T00:35:05;3.50;;;2.60;;
6195;SDS011;3131;42.630;23.382;2023-04-15T00:37:33;5.83;;;3.03;;
6195;SDS011;3131;42.630;23.382;2023-04-15T00:40:02;5.27;;;2.87;;
6195;SDS011;3131;42.630;23.382;2023-04-15T00:42:31;6.17;;;4.30;;
6195;SDS011;3131;42.630;23.382;2023-04-15T00:44:59;5.57;;;3.57;;
6195;SDS011;3131;42.630;23.382;2023-04-15T00:47:27;7.20;;;3.00;;
6195;SDS011;3131;42.630;23.382;2023-04-15T00:49:55;5.43;;;3.20;;
6195;SDS011;3131;42.630;23.382;2023-04-15T00:52:23;8.83;;;3.57;;
6195;SDS011;3131;42.630;23.382;2023-04-15T00:54:51;7.03;;;3.70;;
6195;SDS011;3131;42.630;23.382;2023-04-15T00:57:20;6.80;;;3.10;;
6195;SDS011;3131;42.630;23.382;2023-04-15T00:59:48;6.03;;;2.20;;
6195;SDS011;3131;42.630;23.382;2023-04-15T01:02:16;3.60;;;2.90;;
6195;SDS011;3131;42.630;23.382;2023-04-15T01:04:44;3.37;;;3.03;;
6195;SDS011;3131;42.630;23.382;2023-04-15T01:07:12;6.30;;;3.43;;
6195;SDS011;3131;42.630;23.382;2023-04-15T01:09:40;2.20;;;1.80;;
6195;SDS011;3131;42.630;23.382;2023-04-15T01:12:08;2.37;;;2.17;;
6195;SDS011;3131;42.630;23.382;2023-04-15T01:14:36;6.30;;;3.27;;
6195;SDS011;3131;42.630;23.382;2023-04-15T01:17:05;1.77;;;1.67;;
6195;SDS011;3131;42.630;23.382;2023-04-15T01:19:32;3.60;;;2.73;;
6195;SDS011;3131;42.630;23.382;2023-04-15T01:22:00;3.67;;;2.60;;
6195;SDS011;3131;42.630;23.382;2023-04-15T01:24:28;7.67;;;3.50;;
6195;SDS011;3131;42.630;23.382;2023-04-15T01:26:56;2.73;;;2.07;;
6195;SDS011;3131;42.630;23.382;2023-04-15T01:29:24;4.93;;;3.20;;
6195;SDS011;3131;42.630;23.382;2023-04-15T01:31:53;3.80;;;2.00;;
6195;SDS011;3131;42.630;23.382;2023-04-15T01:34:21;4.03;;;2.50;;
6195;SDS011;3131;42.630;23.382;2023-04-15T01:36:48;7.33;;;2.50;;
6195;SDS011;3131;42.630;23.382;2023-04-15T01:39:16;2.00;;;1.60;;
6195;SDS011;3131;42.630;23.382;2023-04-15T01:41:44;1.90;;;1.80;;
6195;SDS011;3131;42.630;23.382;2023-04-15T01:44:12;1.67;;;1.57;;
6195;SDS011;3131;42.630;23.382;2023-04-15T01:46:39;2.23;;;1.60;;
6195;SDS011;3131;42.630;23.382;2023-04-15T01:49:08;2.60;;;2.20;;
6195;SDS011;3131;42.630;23.382;2023-04-15T01:51:35;4.07;;;2.00;;
6195;SDS011;3131;42.630;23.382;2023-04-15T01:54:03;3.90;;;2.17;;
6195;SDS011;3131;42.630;23.382;2023-04-15T01:56:31;1.57;;;1.47;;
6195;SDS011;3131;42.630;23.382;2023-04-15T01:58:59;1.70;;;1.60;;
6195;SDS011;3131;42.630;23.382;2023-04-15T02:01:27;3.43;;;2.67;;
6195;SDS011;3131;42.630;23.382;2023-04-15T02:03:54;6.03;;;2.87;;
6195;SDS011;3131;42.630;23.382;2023-04-15T02:06:22;3.60;;;2.73;;
6195;SDS011;3131;42.630;23.382;2023-04-15T02:08:50;6.30;;;3.00;;
6195;SDS011;3131;42.630;23.382;2023-04-15T02:11:18;4.30;;;2.90;;
6195;SDS011;3131;42.630;23.382;2023-04-15T02:19:07;5.77;;;2.70;;
6195;SDS011;3131;42.630;23.382;2023-04-15T02:21:35;2.03;;;1.83;;
6195;SDS011;3131;42.630;23.382;2023-04-15T02:24:02;4.13;;;2.70;;
6195;SDS011;3131;42.630;23.382;2023-04-15T02:26:31;3.90;;;2.93;;
6195;SDS011;3131;42.630;23.382;2023-04-15T02:28:58;3.93;;;2.97;;
6195;SDS011;3131;42.630;23.382;2023-04-15T02:31:26;5.40;;;3.10;;
6195;SDS011;3131;42.630;23.382;2023-04-15T02:33:54;7.67;;;2.70;;
6195;SDS011;3131;42.630;23.382;2023-04-15T02:36:22;7.63;;;2.97;;
6195;SDS011;3131;42.630;23.382;2023-04-15T02:38:49;2.80;;;2.50;;
6195;SDS011;3131;42.630;23.382;2023-04-15T02:41:17;6.67;;;3.30;;
6195;SDS011;3131;42.630;23.382;2023-04-15T02:43:45;4.17;;;2.83;;
6195;SDS011;3131;42.630;23.382;2023-04-15T02:46:13;6.40;;;2.70;;
6195;SDS011;3131;42.630;23.382;2023-04-15T02:48:41;2.83;;;2.53;;
6195;SDS011;3131;42.630;23.382;2023-04-15T02:51:15;5.13;;;3.10;;
6195;SDS011;3131;42.630;23.382;2023-04-15T02:53:45;6.47;;;2.87;;
6195;SDS011;3131;42.630;23.382;2023-04-15T02:56:12;4.00;;;2.90;;
6195;SDS011;3131;42.630;23.382;2023-04-15T02:58:42;5.80;;;3.33;;
6195;SDS011;3131;42.630;23.382;2023-04-15T03:01:10;8.93;;;3.50;;
6195;SDS011;3131;42.630;23.382;2023-04-15T03:03:38;5.87;;;3.47;;
6195;SDS011;3131;42.630;23.382;2023-04-15T03:06:05;3.30;;;2.77;;
6195;SDS011;3131;42.630;23.382;2023-04-15T03:08:34;4.80;;;2.93;;
6195;SDS011;3131;42.630;23.382;2023-04-15T03:11:02;6.63;;;3.40;;
6195;SDS011;3131;42.630;23.382;2023-04-15T03:13:30;5.13;;;3.20;;
6195;SDS011;3131;42.630;23.382;2023-04-15T03:15:57;5.23;;;3.00;;
6195;SDS011;3131;42.630;23.382;2023-04-15T03:18:25;4.57;;;3.17;;
6195;SDS011;3131;42.630;23.382;2023-04-15T03:20:54;9.30;;;3.07;;
6195;SDS011;3131;42.630;23.382;2023-04-15T03:23:22;10.17;;;3.53;;
6195;SDS011;3131;42.630;23.382;2023-04-15T03:25:50;4.67;;;3.03;;
6195;SDS011;3131;42.630;23.382;2023-04-15T03:28:17;9.77;;;3.10;;
6195;SDS011;3131;42.630;23.382;2023-04-15T03:30:45;9.50;;;3.13;;
6195;SDS011;3131;42.630;23.382;2023-04-15T03:33:13;4.77;;;2.80;;
6195;SDS011;3131;42.630;23.382;2023-04-15T03:35:40;5.03;;;3.17;;
6195;SDS011;3131;42.630;23.382;2023-04-15T03:38:08;5.07;;;3.37;;
6195;SDS011;3131;42.630;23.382;2023-04-15T03:40:36;7.47;;;3.10;;
6195;SDS011;3131;42.630;23.382;2023-04-15T03:43:04;5.93;;;3.23;;
6195;SDS011;3131;42.630;23.382;2023-04-15T03:45:32;2.60;;;2.40;;
6195;SDS011;3131;42.630;23.382;2023-04-15T03:48:00;4.07;;;2.13;;
6195;SDS011;3131;42.630;23.382;2023-04-15T03:50:27;4.50;;;2.67;;
6195;SDS011;3131;42.630;23.382;2023-04-15T03:52:55;5.63;;;3.20;;
6195;SDS011;3131;42.630;23.382;2023-04-15T03:55:22;8.20;;;3.30;;
6195;SDS011;3131;42.630;23.382;2023-04-15T03:57:50;2.67;;;2.47;;
6195;SDS011;3131;42.630;23.382;2023-04-15T04:00:19;5.77;;;3.97;;
6195;SDS011;3131;42.630;23.382;2023-04-15T04:02:46;7.43;;;4.50;;
6195;SDS011;3131;42.630;23.382;2023-04-15T04:05:14;6.13;;;3.67;;
6195;SDS011;3131;42.630;23.382;2023-04-15T04:07:42;9.20;;;3.93;;
6195;SDS011;3131;42.630;23.382;2023-04-15T04:10:10;6.17;;;4.67;;
6195;SDS011;3131;42.630;23.382;2023-04-15T04:12:37;10.80;;;5.00;;
6195;SDS011;3131;42.630;23.382;2023-04-15T04:15:06;8.20;;;4.10;;
6195;SDS011;3131;42.630;23.382;2023-04-15T04:17:34;7.83;;;4.90;;
6195;SDS011;3131;42.630;23.382;2023-04-15T04:20:02;7.70;;;5.00;;
6195;SDS011;3131;42.630;23.382;2023-04-15T04:22:30;10.77;;;6.07;;
6195;SDS011;3131;42.630;23.382;2023-04-15T04:24:58;13.93;;;5.17;;
6195;SDS011;3131;42.630;23.382;2023-04-15T04:27:27;11.23;;;5.90;;
6195;SDS011;3131;42.630;23.382;2023-04-15T04:29:55;10.57;;;6.30;;
6195;SDS011;3131;42.630;23.382;2023-04-15T04:32:23;12.23;;;5.87;;
6195;SDS011;3131;42.630;23.382;2023-04-15T04:34:51;9.83;;;6.10;;
6195;SDS011;3131;42.630;23.382;2023-04-15T04:37:18;14.63;;;7.00;;
6195;SDS011;3131;42.630;23.382;2023-04-15T04:39:46;17.83;;;7.10;;
6195;SDS011;3131;42.630;23.382;2023-04-15T04:42:14;20.03;;;7.43;;
6195;SDS011;3131;42.630;23.382;2023-04-15T04:44:42;16.83;;;9.13;;
6195;SDS011;3131;42.630;23.382;2023-04-15T04:47:09;16.40;;;7.17;;
6195;SDS011;3131;42.630;23.382;2023-04-15T04:49:37;8.83;;;6.00;;
6195;SDS011;3131;42.630;23.382;2023-04-15T04:52:05;28.17;;;6.70;;
6195;SDS011;3131;42.630;23.382;2023-04-15T04:54:33;15.50;;;6.50;;
6195;SDS011;3131;42.630;23.382;2023-04-15T04:57:00;8.47;;;6.47;;
6195;SDS011;3131;42.630;23.382;2023-04-15T04:59:28;10.37;;;6.90;;
6195;SDS011;3131;42.630;23.382;2023-04-15T05:01:56;11.37;;;6.87;;
6195;SDS011;3131;42.630;23.382;2023-04-15T05:04:24;11.33;;;5.63;;
6195;SDS011;3131;42.630;23.382;2023-04-15T05:06:51;13.33;;;5.83;;
6195;SDS011;3131;42.630;23.382;2023-04-15T05:09:19;15.23;;;6.23;;
6195;SDS011;3131;42.630;23.382;2023-04-15T05:11:46;14.93;;;6.30;;
6195;SDS011;3131;42.630;23.382;2023-04-15T05:14:14;12.23;;;6.37;;
6195;SDS011;3131;42.630;23.382;2023-04-15T05:16:42;11.83;;;6.80;;
6195;SDS011;3131;42.630;23.382;2023-04-15T05:19:09;10.70;;;5.70;;
6195;SDS011;3131;42.630;23.382;2023-04-15T05:21:37;10.13;;;5.87;;
6195;SDS011;3131;42.630;23.382;2023-04-15T05:24:05;8.23;;;5.60;;
6195;SDS011;3131;42.630;23.382;2023-04-15T05:26:33;13.03;;;6.53;;
6195;SDS011;3131;42.630;23.382;2023-04-15T05:29:01;11.93;;;6.27;;
6195;SDS011;3131;42.630;23.382;2023-04-15T05:31:29;8.30;;;5.53;;
6195;SDS011;3131;42.630;23.382;2023-04-15T05:33:56;14.60;;;6.07;;
6195;SDS011;3131;42.630;23.382;2023-04-15T05:36:24;8.17;;;5.20;;
6195;SDS011;3131;42.630;23.382;2023-04-15T05:38:53;17.33;;;6.10;;
6195;SDS011;3131;42.630;23.382;2023-04-15T05:41:20;8.03;;;4.90;;
6195;SDS011;3131;42.630;23.382;2023-04-15T05:43:48;9.53;;;6.47;;
6195;SDS011;3131;42.630;23.382;2023-04-15T05:46:15;10.00;;;5.37;;
6195;SDS011;3131;42.630;23.382;2023-04-15T05:48:43;11.03;;;5.27;;
6195;SDS011;3131;42.630;23.382;2023-04-15T05:51:10;14.47;;;5.70;;
6195;SDS011;3131;42.630;23.382;2023-04-15T05:53:38;13.60;;;5.30;;
6195;SDS011;3131;42.630;23.382;2023-04-15T05:56:07;16.13;;;4.77;;
6195;SDS011;3131;42.630;23.382;2023-04-15T05:58:34;9.00;;;4.10;;
6195;SDS011;3131;42.630;23.382;2023-04-15T06:01:02;9.43;;;4.00;;
6195;SDS011;3131;42.630;23.382;2023-04-15T06:03:30;9.53;;;4.53;;
6195;SDS011;3131;42.630;23.382;2023-04-15T06:05:58;13.37;;;6.00;;
6195;SDS011;3131;42.630;23.382;2023-04-15T06:08:26;12.07;;;4.40;;
6195;SDS011;3131;42.630;23.382;2023-04-15T06:10:54;8.90;;;4.10;;
6195;SDS011;3131;42.630;23.382;2023-04-15T06:13:22;9.23;;;4.60;;
6195;SDS011;3131;42.630;23.382;2023-04-15T06:15:49;7.53;;;3.83;;
6195;SDS011;3131;42.630;23.382;2023-04-15T06:18:17;10.10;;;3.80;;
6195;SDS011;3131;42.630;23.382;2023-04-15T06:20:45;7.30;;;3.30;;
6195;SDS011;3131;42.630;23.382;2023-04-15T06:23:13;6.90;;;3.07;;
6195;SDS011;3131;42.630;23.382;2023-04-15T06:25:40;6.77;;;3.43;;
6195;SDS011;3131;42.630;23.382;2023-04-15T06:28:08;18.40;;;3.93;;
6195;SDS011;3131;42.630;23.382;2023-04-15T06:30:35;8.97;;;3.30;;
6195;SDS011;3131;42.630;23.382;2023-04-15T06:33:03;5.57;;;3.60;;
6195;SDS011;3131;42.630;23.382;2023-04-15T06:35:31;10.13;;;4.13;;
6195;SDS011;3131;42.630;23.382;2023-04-15T06:37:59;4.83;;;3.43;;
6195;SDS011;3131;42.630;23.382;2023-04-15T06:40:27;7.00;;;3.63;;
6195;SDS011;3131;42.630;23.382;2023-04-15T06:42:55;7.93;;;3.63;;
6195;SDS011;3131;42.630;23.382;2023-04-15T06:45:22;11.77;;;3.77;;
6195;SDS011;3131;42.630;23.382;2023-04-15T06:47:51;5.13;;;3.63;;
6195;SDS011;3131;42.630;23.382;2023-04-15T06:50:19;10.23;;;4.33;;
6195;SDS011;3131;42.630;23.382;2023-04-15T06:52:47;7.70;;;3.77;;
6195;SDS011;3131;42.630;23.382;2023-04-15T06:55:15;16.53;;;4.93;;
6195;SDS011;3131;42.630;23.382;2023-04-15T06:57:43;10.03;;;3.67;;
6195;SDS011;3131;42.630;23.382;2023-04-15T07:00:12;15.43;;;4.67;;
6195;SDS011;3131;42.630;23.382;2023-04-15T07:02:40;8.20;;;4.27;;
6195;SDS011;3131;42.630;23.382;2023-04-15T07:05:09;11.47;;;3.03;;
6195;SDS011;3131;42.630;23.382;2023-04-15T07:07:36;5.90;;;3.30;;
6195;SDS011;3131;42.630;23.382;2023-04-15T07:10:05;6.30;;;2.80;;
6195;SDS011;3131;42.630;23.382;2023-04-15T07:12:33;19.33;;;4.93;;
6195;SDS011;3131;42.630;23.382;2023-04-15T07:15:02;9.77;;;3.17;;
6195;SDS011;3131;42.630;23.382;2023-04-15T07:17:30;6.13;;;2.80;;
6195;SDS011;3131;42.630;23.382;2023-04-15T07:19:58;6.30;;;3.13;;
6195;SDS011;3131;42.630;23.382;2023-04-15T07:22:26;8.43;;;2.93;;
6195;SDS011;3131;42.630;23.382;2023-04-15T07:24:54;5.57;;;3.17;;
6195;SDS011;3131;42.630;23.382;2023-04-15T07:27:22;5.03;;;3.03;;
6195;SDS011;3131;42.630;23.382;2023-04-15T07:29:50;7.77;;;3.50;;
6195;SDS011;3131;42.630;23.382;2023-04-15T07:32:18;8.83;;;3.57;;
6195;SDS011;3131;42.630;23.382;2023-04-15T07:34:46;8.37;;;4.00;;
6195;SDS011;3131;42.630;23.382;2023-04-15T07:37:14;5.97;;;3.80;;
6195;SDS011;3131;42.630;23.382;2023-04-15T07:39:43;7.37;;;3.77;;
6195;SDS011;3131;42.630;23.382;2023-04-15T07:42:10;7.03;;;3.90;;
6195;SDS011;3131;42.630;23.382;2023-04-15T07:44:38;7.73;;;4.83;;
6195;SDS011;3131;42.630;23.382;2023-04-15T07:47:06;10.17;;;4.50;;
6195;SDS011;3131;42.630;23.382;2023-04-15T07:49:34;7.20;;;4.10;;
6195;SDS011;3131;42.630;23.382;2023-04-15T07:52:04;6.70;;;4.10;;
6195;SDS011;3131;42.630;23.382;2023-04-15T07:54:32;8.30;;;3.87;;
6195;SDS011;3131;42.630;23.382;2023-04-15T07:56:59;8.00;;;3.93;;
6195;SDS011;3131;42.630;23.382;2023-04-15T07:59:28;11.63;;;3.77;;
6195;SDS011;3131;42.630;23.382;2023-04-15T08:01:59;6.20;;;3.60;;
6195;SDS011;3131;42.630;23.382;2023-04-15T08:04:27;9.43;;;3.27;;
6195;SDS011;3131;42.630;23.382;2023-04-15T08:06:54;7.87;;;3.20;;
6195;SDS011;3131;42.630;23.382;2023-04-15T08:09:26;9.63;;;3.10;;
6195;SDS011;3131;42.630;23.382;2023-04-15T08:11:54;8.57;;;3.00;;
6195;SDS011;3131;42.630;23.382;2023-04-15T08:14:22;10.93;;;3.23;;
6195;SDS011;3131;42.630;23.382;2023-04-15T08:16:50;5.83;;;2.70;;
6195;SDS011;3131;42.630;23.382;2023-04-15T08:19:18;5.17;;;3.13;;
6195;SDS011;3131;42.630;23.382;2023-04-15T08:21:45;3.90;;;2.40;;
6195;SDS011;3131;42.630;23.382;2023-04-15T08:24:13;4.90;;;2.67;;
6195;SDS011;3131;42.630;23.382;2023-04-15T08:26:41;4.27;;;2.40;;
6195;SDS011;3131;42.630;23.382;2023-04-15T08:29:09;8.00;;;3.10;;
6195;SDS011;3131;42.630;23.382;2023-04-15T08:31:36;8.37;;;2.77;;
6195;SDS011;3131;42.630;23.382;2023-04-15T08:34:04;7.67;;;4.20;;
6195;SDS011;3131;42.630;23.382;2023-04-15T08:36:32;8.30;;;2.97;;
6195;SDS011;3131;42.630;23.382;2023-04-15T08:39:00;8.30;;;3.17;;
6195;SDS011;3131;42.630;23.382;2023-04-15T08:41:30;5.40;;;2.13;;
6195;SDS011;3131;42.630;23.382;2023-04-15T08:44:00;4.97;;;2.60;;
6195;SDS011;3131;42.630;23.382;2023-04-15T08:46:28;3.30;;;2.50;;
6195;SDS011;3131;42.630;23.382;2023-04-15T08:48:57;6.23;;;3.40;;
6195;SDS011;3131;42.630;23.382;2023-04-15T08:51:25;7.10;;;2.73;;
6195;SDS011;3131;42.630;23.382;2023-04-15T08:53:53;6.67;;;3.33;;
6195;SDS011;3131;42.630;23.382;2023-04-15T08:56:22;6.53;;;2.43;;
6195;SDS011;3131;42.630;23.382;2023-04-15T08:58:50;5.93;;;3.23;;
6195;SDS011;3131;42.630;23.382;2023-04-15T09:01:18;5.87;;;2.50;;
6195;SDS011;3131;42.630;23.382;2023-04-15T09:03:47;5.03;;;2.67;;
6195;SDS011;3131;42.630;23.382;2023-04-15T09:06:16;5.33;;;2.50;;
6195;SDS011;3131;42.630;23.382;2023-04-15T09:08:43;6.13;;;2.33;;
6195;SDS011;3131;42.630;23.382;2023-04-15T09:11:11;3.47;;;2.40;;
6195;SDS011;3131;42.630;23.382;2023-04-15T09:13:39;2.90;;;2.10;;
6195;SDS011;3131;42.630;23.382;2023-04-15T09:16:07;3.93;;;2.17;;
6195;SDS011;3131;42.630;23.382;2023-04-15T09:18:36;4.70;;;2.23;;
6195;SDS011;3131;42.630;23.382;2023-04-15T09:21:05;3.17;;;2.13;;
6195;SDS011;3131;42.630;23.382;2023-04-15T09:23:34;3.53;;;2.47;;
6195;SDS011;3131;42.630;23.382;2023-04-15T09:26:02;3.27;;;2.30;;
6195;SDS011;3131;42.630;23.382;2023-04-15T09:28:30;6.40;;;1.80;;
6195;SDS011;3131;42.630;23.382;2023-04-15T09:30:58;4.63;;;2.17;;
6195;SDS011;3131;42.630;23.382;2023-04-15T09:33:26;4.80;;;3.47;;
6195;SDS011;3131;42.630;23.382;2023-04-15T09:35:57;4.00;;;1.87;;
6195;SDS011;3131;42.630;23.382;2023-04-15T09:38:26;2.57;;;2.20;;
6195;SDS011;3131;42.630;23.382;2023-04-15T09:40:54;7.83;;;4.07;;
6195;SDS011;3131;42.630;23.382;2023-04-15T09:43:21;5.93;;;2.50;;
6195;SDS011;3131;42.630;23.382;2023-04-15T09:45:51;3.80;;;1.70;;
6195;SDS011;3131;42.630;23.382;2023-04-15T09:48:19;3.30;;;2.10;;
6195;SDS011;3131;42.630;23.382;2023-04-15T09:51:06;3.20;;;1.70;;
6195;SDS011;3131;42.630;23.382;2023-04-15T09:53:35;4.33;;;2.30;;
6195;SDS011;3131;42.630;23.382;2023-04-15T09:56:03;5.83;;;1.93;;
6195;SDS011;3131;42.630;23.382;2023-04-15T09:58:33;7.20;;;2.10;;
6195;SDS011;3131;42.630;23.382;2023-04-15T10:01:03;4.77;;;2.10;;
6195;SDS011;3131;42.630;23.382;2023-04-15T10:03:32;4.23;;;2.43;;
6195;SDS011;3131;42.630;23.382;2023-04-15T10:06:01;6.10;;;2.57;;
6195;SDS011;3131;42.630;23.382;2023-04-15T10:08:29;5.40;;;2.10;;
6195;SDS011;3131;42.630;23.382;2023-04-15T10:10:58;4.57;;;2.23;;
6195;SDS011;3131;42.630;23.382;2023-04-15T10:13:28;4.93;;;2.13;;
6195;SDS011;3131;42.630;23.382;2023-04-15T10:15:58;4.07;;;2.07;;
6195;SDS011;3131;42.630;23.382;2023-04-15T10:18:26;4.10;;;1.83;;
6195;SDS011;3131;42.630;23.382;2023-04-15T10:20:54;4.00;;;2.00;;
6195;SDS011;3131;42.630;23.382;2023-04-15T10:23:22;5.00;;;1.97;;
6195;SDS011;3131;42.630;23.382;2023-04-15T10:25:51;6.13;;;2.07;;
6195;SDS011;3131;42.630;23.382;2023-04-15T10:28:19;4.10;;;1.73;;
6195;SDS011;3131;42.630;23.382;2023-04-15T10:30:48;4.30;;;1.90;;
6195;SDS011;3131;42.630;23.382;2023-04-15T10:33:16;3.20;;;1.70;;
6195;SDS011;3131;42.630;23.382;2023-04-15T10:35:45;2.50;;;1.53;;
6195;SDS011;3131;42.630;23.382;2023-04-15T10:38:33;3.80;;;1.97;;
6195;SDS011;3131;42.630;23.382;2023-04-15T10:41:13;6.87;;;1.70;;
6195;SDS011;3131;42.630;23.382;2023-04-15T10:43:45;3.93;;;1.93;;
6195;SDS011;3131;42.630;23.382;2023-04-15T10:46:15;4.80;;;1.90;;
6195;SDS011;3131;42.630;23.382;2023-04-15T10:48:46;5.67;;;2.13;;
6195;SDS011;3131;42.630;23.382;2023-04-15T10:51:16;3.17;;;1.63;;
6195;SDS011;3131;42.630;23.382;2023-04-15T10:53:46;5.97;;;3.17;;
6195;SDS011;3131;42.630;23.382;2023-04-15T10:56:14;2.37;;;2.00;;
6195;SDS011;3131;42.630;23.382;2023-04-15T10:58:43;3.17;;;2.00;;
6195;SDS011;3131;42.630;23.382;2023-04-15T11:01:11;3.23;;;1.90;;
6195;SDS011;3131;42.630;23.382;2023-04-15T11:03:41;5.43;;;1.90;;
6195;SDS011;3131;42.630;23.382;2023-04-15T11:06:09;2.53;;;1.63;;
6195;SDS011;3131;42.630;23.382;2023-04-15T11:08:58;3.97;;;1.70;;
6195;SDS011;3131;42.630;23.382;2023-04-15T11:14:14;6.93;;;1.97;;
6195;SDS011;3131;42.630;23.382;2023-04-15T11:16:42;1.67;;;1.30;;
6195;SDS011;3131;42.630;23.382;2023-04-15T11:19:10;3.03;;;1.77;;
6195;SDS011;3131;42.630;23.382;2023-04-15T11:21:38;2.73;;;1.80;;
6195;SDS011;3131;42.630;23.382;2023-04-15T11:24:07;3.50;;;1.80;;
6195;SDS011;3131;42.630;23.382;2023-04-15T11:26:35;3.20;;;2.07;;
6195;SDS011;3131;42.630;23.382;2023-04-15T11:29:03;2.20;;;1.27;;
6195;SDS011;3131;42.630;23.382;2023-04-15T11:31:31;3.67;;;1.70;;
6195;SDS011;3131;42.630;23.382;2023-04-15T11:33:59;4.83;;;2.00;;
6195;SDS011;3131;42.630;23.382;2023-04-15T11:36:28;4.43;;;1.60;;
6195;SDS011;3131;42.630;23.382;2023-04-15T11:38:57;3.77;;;1.40;;
6195;SDS011;3131;42.630;23.382;2023-04-15T11:41:25;3.93;;;1.50;;
6195;SDS011;3131;42.630;23.382;2023-04-15T11:43:53;6.03;;;1.60;;
6195;SDS011;3131;42.630;23.382;2023-04-15T11:46:27;2.57;;;1.30;;
6195;SDS011;3131;42.630;23.382;2023-04-15T11:48:50;2.60;;;1.70;;
6195;SDS011;3131;42.630;23.382;2023-04-15T11:51:18;5.03;;;1.57;;
6195;SDS011;3131;42.630;23.382;2023-04-15T11:53:51;2.10;;;1.33;;
6195;SDS011;3131;42.630;23.382;2023-04-15T11:56:20;4.73;;;1.50;;
6195;SDS011;3131;42.630;23.382;2023-04-15T11:58:51;4.23;;;1.90;;
6195;SDS011;3131;42.630;23.382;2023-04-15T12:01:19;2.57;;;1.63;;
6195;SDS011;3131;42.630;23.382;2023-04-15T12:03:48;3.83;;;2.23;;
6195;SDS011;3131;42.630;23.382;2023-04-15T12:06:18;1.90;;;1.30;;
6195;SDS011;3131;42.630;23.382;2023-04-15T12:08:50;3.33;;;2.07;;
6195;SDS011;3131;42.630;23.382;2023-04-15T12:11:18;6.30;;;1.57;;
6195;SDS011;3131;42.630;23.382;2023-04-15T12:13:48;2.27;;;1.43;;
6195;SDS011;3131;42.630;23.382;2023-04-15T12:16:18;5.10;;;2.27;;
6195;SDS011;3131;42.630;23.382;2023-04-15T12:18:50;6.97;;;2.03;;
6195;SDS011;3131;42.630;23.382;2023-04-15T12:21:22;1.50;;;1.40;;
6195;SDS011;3131;42.630;23.382;2023-04-15T12:23:50;2.70;;;1.23;;
6195;SDS011;3131;42.630;23.382;2023-04-15T12:26:24;1.73;;;1.20;;
6195;SDS011;3131;42.630;23.382;2023-04-15T12:28:48;3.83;;;1.63;;
6195;SDS011;3131;42.630;23.382;2023-04-15T12:31:17;3.50;;;2.23;;
6195;SDS011;3131;42.630;23.382;2023-04-15T12:33:47;2.13;;;0.97;;
6195;SDS011;3131;42.630;23.382;2023-04-15T12:36:15;2.57;;;1.30;;
6195;SDS011;3131;42.630;23.382;2023-04-15T12:38:43;4.00;;;1.50;;
6195;SDS011;3131;42.630;23.382;2023-04-15T12:41:11;1.73;;;1.40;;
6195;SDS011;3131;42.630;23.382;2023-04-15T12:43:38;1.53;;;1.03;;
6195;SDS011;3131;42.630;23.382;2023-04-15T12:46:07;3.53;;;1.23;;
6195;SDS011;3131;42.630;23.382;2023-04-15T12:48:35;4.20;;;1.87;;
6195;SDS011;3131;42.630;23.382;2023-04-15T12:51:03;3.90;;;2.00;;
6195;SDS011;3131;42.630;23.382;2023-04-15T12:53:31;1.50;;;1.10;;
6195;SDS011;3131;42.630;23.382;2023-04-15T12:55:58;3.53;;;1.23;;
6195;SDS011;3131;42.630;23.382;2023-04-15T12:58:26;1.33;;;1.13;;
6195;SDS011;3131;42.630;23.382;2023-04-15T13:00:54;1.57;;;1.20;;
6195;SDS011;3131;42.630;23.382;2023-04-15T13:03:22;1.97;;;1.30;;
6195;SDS011;3131;42.630;23.382;2023-04-15T13:05:49;4.10;;;1.30;;
6195;SDS011;3131;42.630;23.382;2023-04-15T13:08:17;2.73;;;1.07;;
6195;SDS011;3131;42.630;23.382;2023-04-15T13:10:45;3.63;;;1.53;;
6195;SDS011;3131;42.630;23.382;2023-04-15T13:13:13;1.37;;;1.13;;
6195;SDS011;3131;42.630;23.382;2023-04-15T13:15:41;2.73;;;1.20;;
6195;SDS011;3131;42.630;23.382;2023-04-15T13:18:10;3.27;;;1.07;;
6195;SDS011;3131;42.630;23.382;2023-04-15T13:20:38;5.77;;;2.73;;
6195;SDS011;3131;42.630;23.382;2023-04-15T13:23:06;1.60;;;1.30;;
6195;SDS011;3131;42.630;23.382;2023-04-15T13:25:34;2.97;;;1.10;;
6195;SDS011;3131;42.630;23.382;2023-04-15T13:28:02;2.60;;;1.60;;
6195;SDS011;3131;42.630;23.382;2023-04-15T13:30:29;3.70;;;1.57;;
6195;SDS011;3131;42.630;23.382;2023-04-15T13:32:57;1.13;;;0.90;;
6195;SDS011;3131;42.630;23.382;2023-04-15T13:35:25;1.70;;;1.20;;
6195;SDS011;3131;42.630;23.382;2023-04-15T13:37:53;5.33;;;1.10;;
6195;SDS011;3131;42.630;23.382;2023-04-15T13:40:21;3.47;;;1.30;;
6195;SDS011;3131;42.630;23.382;2023-04-15T13:42:49;2.83;;;1.40;;
6195;SDS011;3131;42.630;23.382;2023-04-15T13:45:18;3.77;;;1.60;;
6195;SDS011;3131;42.630;23.382;2023-04-15T13:47:45;2.47;;;1.10;;
6195;SDS011;3131;42.630;23.382;2023-04-15T13:50:13;1.93;;;1.10;;
6195;SDS011;3131;42.630;23.382;2023-04-15T13:52:41;2.60;;;1.10;;
6195;SDS011;3131;42.630;23.382;2023-04-15T13:55:09;1.90;;;0.90;;
6195;SDS011;3131;42.630;23.382;2023-04-15T13:57:37;4.30;;;1.80;;
6195;SDS011;3131;42.630;23.382;2023-04-15T14:00:05;1.30;;;1.20;;
6195;SDS011;3131;42.630;23.382;2023-04-15T14:02:33;1.23;;;0.90;;
6195;SDS011;3131;42.630;23.382;2023-04-15T14:05:01;2.40;;;1.30;;
6195;SDS011;3131;42.630;23.382;2023-04-15T14:07:29;1.77;;;1.47;;
6195;SDS011;3131;42.630;23.382;2023-04-15T14:09:57;1.43;;;1.33;;
6195;SDS011;3131;42.630;23.382;2023-04-15T14:12:25;1.80;;;1.03;;
6195;SDS011;3131;42.630;23.382;2023-04-15T14:14:53;7.50;;;1.67;;
6195;SDS011;3131;42.630;23.382;2023-04-15T14:17:20;6.07;;;2.60;;
6195;SDS011;3131;42.630;23.382;2023-04-15T14:19:48;6.40;;;2.90;;
6195;SDS011;3131;42.630;23.382;2023-04-15T14:22:16;1.67;;;1.27;;
6195;SDS011;3131;42.630;23.382;2023-04-15T14:24:44;2.63;;;1.30;;
6195;SDS011;3131;42.630;23.382;2023-04-15T14:27:13;3.87;;;1.83;;
6195;SDS011;3131;42.630;23.382;2023-04-15T14:29:42;3.33;;;1.63;;
6195;SDS011;3131;42.630;23.382;2023-04-15T14:32:09;2.33;;;1.60;;
6195;SDS011;3131;42.630;23.382;2023-04-15T14:34:37;2.13;;;1.30;;
6195;SDS011;3131;42.630;23.382;2023-04-15T14:37:04;1.93;;;1.47;;
6195;SDS011;3131;42.630;23.382;2023-04-15T14:39:32;5.83;;;2.33;;
6195;SDS011;3131;42.630;23.382;2023-04-15T14:42:00;3.47;;;1.40;;
6195;SDS011;3131;42.630;23.382;2023-04-15T14:44:27;1.57;;;1.37;;
6195;SDS011;3131;42.630;23.382;2023-04-15T14:46:55;2.60;;;1.43;;
6195;SDS011;3131;42.630;23.382;2023-04-15T14:49:23;4.40;;;1.60;;
6195;SDS011;3131;42.630;23.382;2023-04-15T14:51:51;2.60;;;1.50;;
6195;SDS011;3131;42.630;23.382;2023-04-15T14:54:19;1.37;;;1.27;;
6195;SDS011;3131;42.630;23.382;2023-04-15T14:56:46;2.33;;;1.50;;
6195;SDS011;3131;42.630;23.382;2023-04-15T14:59:14;2.07;;;1.27;;
6195;SDS011;3131;42.630;23.382;2023-04-15T15:01:41;6.30;;;2.40;;
6195;SDS011;3131;42.630;23.382;2023-04-15T15:04:09;2.83;;;1.53;;
6195;SDS011;3131;42.630;23.382;2023-04-15T15:06:38;6.03;;;2.33;;
6195;SDS011;3131;42.630;23.382;2023-04-15T15:09:08;7.20;;;2.10;;
6195;SDS011;3131;42.630;23.382;2023-04-15T15:11:36;15.67;;;3.83;;
6195;SDS011;3131;42.630;23.382;2023-04-15T15:14:03;2.57;;;1.83;;